sensor_id;sensor_type;location;lat;lon;timestamp;temperature;humidity
5086;DHT22;4715;51.660;7.082;2023-03-31T00:02:15;12.00;99.90
5086;DHT22;4715;51.660;7.082;2023-03-31T00:04:42;11.90;99.90
5086;DHT22;4715;51.660;7.082;2023-03-31T00:07:05;11.90;99.90
5086;DHT22;4715;51.660;7.082;2023-03-31T00:09:27;11.90;99.90
5086;DHT22;4715;51.660;7.082;2023-03-31T00:11:54;11.90;99.90
5086;DHT22;4715;51.660;7.082;2023-03-31T00:14:17;11.90;99.90
5086;DHT22;4715;51.660;7.082;2023-03-31T00:16:39;11.90;99.90
5086;DHT22;4715;51.660;7.082;2023-03-31T00:19:01;11.90;99.90
5086;DHT22;4715;51.660;7.082;2023-03-31T00:21:23;11.90;99.90
5086;DHT22;4715;51.660;7.082;2023-03-31T00:23:45;11.90;99.90
5086;DHT22;4715;51.660;7.082;2023-03-31T00:26:06;11.90;99.90
5086;DHT22;4715;51.660;7.082;2023-03-31T00:28:30;11.90;99.90
5086;DHT22;4715;51.660;7.082;2023-03-31T00:30:51;11.90;99.90
5086;DHT22;4715;51.660;7.082;2023-03-31T00:33:13;11.90;99.90
5086;DHT22;4715;51.660;7.082;2023-03-31T00:35:35;11.90;99.90
5086;DHT22;4715;51.660;7.082;2023-03-31T00:37:58;11.90;99.90
5086;DHT22;4715;51.660;7.082;2023-03-31T00:40:20;11.90;99.90
5086;DHT22;4715;51.660;7.082;2023-03-31T00:42:43;11.90;99.90
5086;DHT22;4715;51.660;7.082;2023-03-31T00:45:22;11.90;99.90
5086;DHT22;4715;51.660;7.082;2023-03-31T00:47:46;11.90;99.90
5086;DHT22;4715;51.660;7.082;2023-03-31T00:50:14;11.90;99.90
5086;DHT22;4715;51.660;7.082;2023-03-31T00:52:38;11.90;99.90
5086;DHT22;4715;51.660;7.082;2023-03-31T00:55:04;11.90;99.90
5086;DHT22;4715;51.660;7.082;2023-03-31T00:57:29;11.80;99.90
5086;DHT22;4715;51.660;7.082;2023-03-31T00:59:57;11.80;99.90
5086;DHT22;4715;51.660;7.082;2023-03-31T01:02:23;11.80;99.90
5086;DHT22;4715;51.660;7.082;2023-03-31T01:04:47;11.80;99.90
5086;DHT22;4715;51.660;7.082;2023-03-31T01:07:15;11.90;99.90
5086;DHT22;4715;51.660;7.082;2023-03-31T01:09:38;11.90;99.90
5086;DHT22;4715;51.660;7.082;2023-03-31T01:12:03;11.90;99.90
5086;DHT22;4715;51.660;7.082;2023-03-31T01:14:26;11.90;99.90
5086;DHT22;4715;51.660;7.082;2023-03-31T01:16:48;11.90;99.90
5086;DHT22;4715;51.660;7.082;2023-03-31T01:19:21;11.90;99.90
5086;DHT22;4715;51.660;7.082;2023-03-31T01:25:03;11.90;99.90
5086;DHT22;4715;51.660;7.082;2023-03-31T01:27:59;11.90;99.90
5086;DHT22;4715;51.660;7.082;2023-03-31T01:30:53;11.90;99.90
5086;DHT22;4715;51.660;7.082;2023-03-31T01:33:59;11.80;99.90
5086;DHT22;4715;51.660;7.082;2023-03-31T01:36:46;11.70;99.90
5086;DHT22;4715;51.660;7.082;2023-03-31T01:39:47;11.60;99.90
5086;DHT22;4715;51.660;7.082;2023-03-31T01:42:16;11.50;99.90
5086;DHT22;4715;51.660;7.082;2023-03-31T01:44:45;11.40;99.90
5086;DHT22;4715;51.660;7.082;2023-03-31T01:47:14;11.40;99.90
5086;DHT22;4715;51.660;7.082;2023-03-31T01:49:42;11.30;99.90
5086;DHT22;4715;51.660;7.082;2023-03-31T01:52:11;11.30;99.90
5086;DHT22;4715;51.660;7.082;2023-03-31T01:54:38;11.30;99.90
5086;DHT22;4715;51.660;7.082;2023-03-31T01:57:10;11.20;99.90
5086;DHT22;4715;51.660;7.082;2023-03-31T01:59:35;11.20;99.90
5086;DHT22;4715;51.660;7.082;2023-03-31T02:02:01;11.10;99.90
5086;DHT22;4715;51.660;7.082;2023-03-31T02:04:28;11.10;99.90
5086;DHT22;4715;51.660;7.082;2023-03-31T02:06:55;11.10;99.90
5086;DHT22;4715;51.660;7.082;2023-03-31T02:09:20;11.10;99.90
5086;DHT22;4715;51.660;7.082;2023-03-31T02:11:44;11.10;99.90
5086;DHT22;4715;51.660;7.082;2023-03-31T02:14:10;11.10;99.90
5086;DHT22;4715;51.660;7.082;2023-03-31T02:16:35;11.20;99.90
5086;DHT22;4715;51.660;7.082;2023-03-31T02:19:02;11.10;99.90
5086;DHT22;4715;51.660;7.082;2023-03-31T02:21:25;11.20;99.90
5086;DHT22;4715;51.660;7.082;2023-03-31T02:23:49;11.20;99.90
5086;DHT22;4715;51.660;7.082;2023-03-31T02:26:14;11.20;99.90
5086;DHT22;4715;51.660;7.082;2023-03-31T02:28:38;11.20;99.90
5086;DHT22;4715;51.660;7.082;2023-03-31T02:31:09;11.10;99.90
5086;DHT22;4715;51.660;7.082;2023-03-31T02:33:34;11.10;99.90
5086;DHT22;4715;51.660;7.082;2023-03-31T02:35:57;11.10;99.90
5086;DHT22;4715;51.660;7.082;2023-03-31T02:38:19;11.20;99.90
5086;DHT22;4715;51.660;7.082;2023-03-31T02:40:41;11.20;99.90
5086;DHT22;4715;51.660;7.082;2023-03-31T02:43:03;11.20;99.90
5086;DHT22;4715;51.660;7.082;2023-03-31T02:45:40;11.20;99.90
5086;DHT22;4715;51.660;7.082;2023-03-31T02:48:05;11.20;99.90
5086;DHT22;4715;51.660;7.082;2023-03-31T02:50:31;11.20;99.90
5086;DHT22;4715;51.660;7.082;2023-03-31T02:52:59;11.20;99.90
5086;DHT22;4715;51.660;7.082;2023-03-31T02:55:37;11.20;99.90
5086;DHT22;4715;51.660;7.082;2023-03-31T02:58:28;11.20;99.90
5086;DHT22;4715;51.660;7.082;2023-03-31T03:01:09;11.20;99.90
5086;DHT22;4715;51.660;7.082;2023-03-31T03:03:40;11.20;99.90
5086;DHT22;4715;51.660;7.082;2023-03-31T03:06:10;11.20;99.90
5086;DHT22;4715;51.660;7.082;2023-03-31T03:08:45;11.20;99.90
5086;DHT22;4715;51.660;7.082;2023-03-31T03:11:18;11.20;99.90
5086;DHT22;4715;51.660;7.082;2023-03-31T03:13:45;11.20;99.90
5086;DHT22;4715;51.660;7.082;2023-03-31T03:16:12;11.20;99.90
5086;DHT22;4715;51.660;7.082;2023-03-31T03:18:39;11.20;99.90
5086;DHT22;4715;51.660;7.082;2023-03-31T03:21:01;11.20;99.90
5086;DHT22;4715;51.660;7.082;2023-03-31T03:23:23;11.20;99.90
5086;DHT22;4715;51.660;7.082;2023-03-31T03:25:45;11.30;99.90
5086;DHT22;4715;51.660;7.082;2023-03-31T03:28:07;11.30;99.90
5086;DHT22;4715;51.660;7.082;2023-03-31T03:30:29;11.30;99.90
5086;DHT22;4715;51.660;7.082;2023-03-31T03:32:51;11.30;99.90
5086;DHT22;4715;51.660;7.082;2023-03-31T03:35:15;11.20;99.90
5086;DHT22;4715;51.660;7.082;2023-03-31T03:37:37;11.20;99.90
5086;DHT22;4715;51.660;7.082;2023-03-31T03:39:59;11.20;99.90
5086;DHT22;4715;51.660;7.082;2023-03-31T03:42:21;11.20;99.90
5086;DHT22;4715;51.660;7.082;2023-03-31T03:44:43;11.20;99.90
5086;DHT22;4715;51.660;7.082;2023-03-31T03:47:04;11.20;99.90
5086;DHT22;4715;51.660;7.082;2023-03-31T03:49:26;11.20;99.90
5086;DHT22;4715;51.660;7.082;2023-03-31T03:51:49;11.20;99.90
5086;DHT22;4715;51.660;7.082;2023-03-31T03:54:12;11.20;99.90
5086;DHT22;4715;51.660;7.082;2023-03-31T03:56:34;11.20;99.90
5086;DHT22;4715;51.660;7.082;2023-03-31T03:58:55;11.20;99.90
5086;DHT22;4715;51.660;7.082;2023-03-31T04:01:17;11.20;99.90
5086;DHT22;4715;51.660;7.082;2023-03-31T04:03:40;11.20;99.90
5086;DHT22;4715;51.660;7.082;2023-03-31T04:06:02;11.20;99.90
5086;DHT22;4715;51.660;7.082;2023-03-31T04:08:25;11.20;99.90
5086;DHT22;4715;51.660;7.082;2023-03-31T04:10:48;11.20;99.90
5086;DHT22;4715;51.660;7.082;2023-03-31T04:13:10;11.20;99.90
5086;DHT22;4715;51.660;7.082;2023-03-31T04:15:32;11.20;99.90
5086;DHT22;4715;51.660;7.082;2023-03-31T04:17:54;11.20;99.90
5086;DHT22;4715;51.660;7.082;2023-03-31T04:20:17;11.20;99.90
5086;DHT22;4715;51.660;7.082;2023-03-31T04:22:39;11.20;99.90
5086;DHT22;4715;51.660;7.082;2023-03-31T04:25:03;11.20;99.90
5086;DHT22;4715;51.660;7.082;2023-03-31T04:27:34;11.20;99.90
5086;DHT22;4715;51.660;7.082;2023-03-31T04:29:56;11.20;99.90
5086;DHT22;4715;51.660;7.082;2023-03-31T04:32:18;11.30;99.90
5086;DHT22;4715;51.660;7.082;2023-03-31T04:34:41;11.20;99.90
5086;DHT22;4715;51.660;7.082;2023-03-31T04:37:05;11.30;99.90
5086;DHT22;4715;51.660;7.082;2023-03-31T04:39:30;11.30;99.90
5086;DHT22;4715;51.660;7.082;2023-03-31T04:41:53;11.30;99.90
5086;DHT22;4715;51.660;7.082;2023-03-31T04:44:15;11.30;99.90
5086;DHT22;4715;51.660;7.082;2023-03-31T04:46:36;11.20;99.90
5086;DHT22;4715;51.660;7.082;2023-03-31T04:48:58;11.20;99.90
5086;DHT22;4715;51.660;7.082;2023-03-31T04:51:20;11.20;99.90
5086;DHT22;4715;51.660;7.082;2023-03-31T04:53:42;11.20;99.90
5086;DHT22;4715;51.660;7.082;2023-03-31T04:56:05;11.20;99.90
5086;DHT22;4715;51.660;7.082;2023-03-31T04:58:28;11.30;99.90
5086;DHT22;4715;51.660;7.082;2023-03-31T05:00:50;11.30;99.90
5086;DHT22;4715;51.660;7.082;2023-03-31T05:03:12;11.30;99.90
5086;DHT22;4715;51.660;7.082;2023-03-31T05:05:34;11.30;99.90
5086;DHT22;4715;51.660;7.082;2023-03-31T05:07:56;11.30;99.90
5086;DHT22;4715;51.660;7.082;2023-03-31T05:10:18;11.30;99.90
5086;DHT22;4715;51.660;7.082;2023-03-31T05:12:40;11.30;99.90
5086;DHT22;4715;51.660;7.082;2023-03-31T05:15:04;11.30;99.90
5086;DHT22;4715;51.660;7.082;2023-03-31T05:17:26;11.30;99.90
5086;DHT22;4715;51.660;7.082;2023-03-31T05:19:49;11.30;99.90
5086;DHT22;4715;51.660;7.082;2023-03-31T05:22:10;11.20;99.90
5086;DHT22;4715;51.660;7.082;2023-03-31T05:24:32;11.20;99.90
5086;DHT22;4715;51.660;7.082;2023-03-31T05:26:54;11.20;99.90
5086;DHT22;4715;51.660;7.082;2023-03-31T05:29:21;11.20;99.90
5086;DHT22;4715;51.660;7.082;2023-03-31T05:31:45;11.20;99.90
5086;DHT22;4715;51.660;7.082;2023-03-31T05:34:07;11.20;99.90
5086;DHT22;4715;51.660;7.082;2023-03-31T05:36:29;11.20;99.90
5086;DHT22;4715;51.660;7.082;2023-03-31T05:38:51;11.20;99.90
5086;DHT22;4715;51.660;7.082;2023-03-31T05:41:13;11.20;99.90
5086;DHT22;4715;51.660;7.082;2023-03-31T05:43:36;11.20;99.90
5086;DHT22;4715;51.660;7.082;2023-03-31T05:45:58;11.20;99.90
5086;DHT22;4715;51.660;7.082;2023-03-31T05:48:21;11.20;99.90
5086;DHT22;4715;51.660;7.082;2023-03-31T05:50:43;11.20;99.90
5086;DHT22;4715;51.660;7.082;2023-03-31T05:53:05;11.20;99.90
5086;DHT22;4715;51.660;7.082;2023-03-31T05:55:27;11.20;99.90
5086;DHT22;4715;51.660;7.082;2023-03-31T05:57:49;11.20;99.90
5086;DHT22;4715;51.660;7.082;2023-03-31T06:00:12;11.20;99.90
5086;DHT22;4715;51.660;7.082;2023-03-31T06:02:35;11.20;99.90
5086;DHT22;4715;51.660;7.082;2023-03-31T06:04:58;11.30;99.90
5086;DHT22;4715;51.660;7.082;2023-03-31T06:07:20;11.30;99.90
5086;DHT22;4715;51.660;7.082;2023-03-31T06:09:44;11.30;99.90
5086;DHT22;4715;51.660;7.082;2023-03-31T06:12:06;11.30;99.90
5086;DHT22;4715;51.660;7.082;2023-03-31T06:14:28;11.30;99.90
5086;DHT22;4715;51.660;7.082;2023-03-31T06:16:50;11.30;99.90
5086;DHT22;4715;51.660;7.082;2023-03-31T06:19:12;11.30;99.90
5086;DHT22;4715;51.660;7.082;2023-03-31T06:21:35;11.40;99.90
5086;DHT22;4715;51.660;7.082;2023-03-31T06:23:57;11.40;99.90
5086;DHT22;4715;51.660;7.082;2023-03-31T06:26:19;11.40;99.90
5086;DHT22;4715;51.660;7.082;2023-03-31T06:28:42;11.40;99.90
5086;DHT22;4715;51.660;7.082;2023-03-31T06:31:06;11.40;99.90
5086;DHT22;4715;51.660;7.082;2023-03-31T06:33:28;11.40;99.90
5086;DHT22;4715;51.660;7.082;2023-03-31T06:35:50;11.40;99.90
5086;DHT22;4715;51.660;7.082;2023-03-31T06:38:13;11.40;99.90
5086;DHT22;4715;51.660;7.082;2023-03-31T06:40:35;11.40;99.90
5086;DHT22;4715;51.660;7.082;2023-03-31T06:42:57;11.40;99.90
5086;DHT22;4715;51.660;7.082;2023-03-31T06:45:18;11.40;99.90
5086;DHT22;4715;51.660;7.082;2023-03-31T06:47:40;11.40;99.90
5086;DHT22;4715;51.660;7.082;2023-03-31T06:50:04;11.40;99.90
5086;DHT22;4715;51.660;7.082;2023-03-31T06:52:26;11.40;99.90
5086;DHT22;4715;51.660;7.082;2023-03-31T06:54:50;11.30;99.90
5086;DHT22;4715;51.660;7.082;2023-03-31T06:57:12;11.30;99.90
5086;DHT22;4715;51.660;7.082;2023-03-31T06:59:34;11.30;99.90
5086;DHT22;4715;51.660;7.082;2023-03-31T07:01:55;11.30;99.90
5086;DHT22;4715;51.660;7.082;2023-03-31T07:04:17;11.30;99.90
5086;DHT22;4715;51.660;7.082;2023-03-31T07:06:39;11.30;99.90
5086;DHT22;4715;51.660;7.082;2023-03-31T07:09:01;11.30;99.90
5086;DHT22;4715;51.660;7.082;2023-03-31T07:11:25;11.30;99.90
5086;DHT22;4715;51.660;7.082;2023-03-31T07:13:47;11.20;99.90
5086;DHT22;4715;51.660;7.082;2023-03-31T07:16:09;11.20;99.90
5086;DHT22;4715;51.660;7.082;2023-03-31T07:18:33;11.20;99.90
5086;DHT22;4715;51.660;7.082;2023-03-31T07:20:56;11.20;99.90
5086;DHT22;4715;51.660;7.082;2023-03-31T07:23:18;11.10;99.90
5086;DHT22;4715;51.660;7.082;2023-03-31T07:25:40;11.10;99.90
5086;DHT22;4715;51.660;7.082;2023-03-31T07:28:04;11.10;99.90
5086;DHT22;4715;51.660;7.082;2023-03-31T07:30:27;11.10;99.90
5086;DHT22;4715;51.660;7.082;2023-03-31T07:32:49;11.10;99.90
5086;DHT22;4715;51.660;7.082;2023-03-31T07:35:11;11.10;99.90
5086;DHT22;4715;51.660;7.082;2023-03-31T07:37:34;11.10;99.90
5086;DHT22;4715;51.660;7.082;2023-03-31T07:39:56;11.00;99.90
5086;DHT22;4715;51.660;7.082;2023-03-31T07:42:18;11.00;99.90
5086;DHT22;4715;51.660;7.082;2023-03-31T07:44:41;11.00;99.90
5086;DHT22;4715;51.660;7.082;2023-03-31T07:47:03;11.00;99.90
5086;DHT22;4715;51.660;7.082;2023-03-31T07:49:25;11.00;99.90
5086;DHT22;4715;51.660;7.082;2023-03-31T07:51:47;11.00;99.90
5086;DHT22;4715;51.660;7.082;2023-03-31T07:54:09;11.00;99.90
5086;DHT22;4715;51.660;7.082;2023-03-31T07:56:31;10.90;99.90
5086;DHT22;4715;51.660;7.082;2023-03-31T07:58:52;10.90;99.90
5086;DHT22;4715;51.660;7.082;2023-03-31T08:01:18;10.90;99.90
5086;DHT22;4715;51.660;7.082;2023-03-31T08:03:41;10.90;99.90
5086;DHT22;4715;51.660;7.082;2023-03-31T08:06:03;10.90;99.90
5086;DHT22;4715;51.660;7.082;2023-03-31T08:08:25;10.90;99.90
5086;DHT22;4715;51.660;7.082;2023-03-31T08:10:49;10.90;99.90
5086;DHT22;4715;51.660;7.082;2023-03-31T08:13:11;10.90;99.90
5086;DHT22;4715;51.660;7.082;2023-03-31T08:15:33;10.90;99.90
5086;DHT22;4715;51.660;7.082;2023-03-31T08:17:56;10.90;99.90
5086;DHT22;4715;51.660;7.082;2023-03-31T08:20:18;10.90;99.90
5086;DHT22;4715;51.660;7.082;2023-03-31T08:22:40;10.90;99.90
5086;DHT22;4715;51.660;7.082;2023-03-31T08:25:02;10.90;99.90
5086;DHT22;4715;51.660;7.082;2023-03-31T08:27:24;10.90;99.90
5086;DHT22;4715;51.660;7.082;2023-03-31T08:29:46;10.90;99.90
5086;DHT22;4715;51.660;7.082;2023-03-31T08:32:09;10.90;99.90
5086;DHT22;4715;51.660;7.082;2023-03-31T08:34:33;10.90;99.90
5086;DHT22;4715;51.660;7.082;2023-03-31T08:36:55;10.90;99.90
5086;DHT22;4715;51.660;7.082;2023-03-31T08:39:17;10.90;99.90
5086;DHT22;4715;51.660;7.082;2023-03-31T08:41:46;10.90;99.90
5086;DHT22;4715;51.660;7.082;2023-03-31T08:44:13;10.90;99.90
5086;DHT22;4715;51.660;7.082;2023-03-31T08:46:38;11.00;99.90
5086;DHT22;4715;51.660;7.082;2023-03-31T08:49:02;10.90;99.90
5086;DHT22;4715;51.660;7.082;2023-03-31T08:51:28;11.00;99.90
5086;DHT22;4715;51.660;7.082;2023-03-31T08:53:56;11.00;99.90
5086;DHT22;4715;51.660;7.082;2023-03-31T08:56:21;11.00;99.90
5086;DHT22;4715;51.660;7.082;2023-03-31T08:58:44;11.00;99.90
5086;DHT22;4715;51.660;7.082;2023-03-31T09:01:13;11.00;99.90
5086;DHT22;4715;51.660;7.082;2023-03-31T09:03:44;11.00;99.90
5086;DHT22;4715;51.660;7.082;2023-03-31T09:06:12;11.00;99.90
5086;DHT22;4715;51.660;7.082;2023-03-31T09:08:37;11.00;99.90
5086;DHT22;4715;51.660;7.082;2023-03-31T09:11:10;11.00;99.90
5086;DHT22;4715;51.660;7.082;2023-03-31T09:13:44;11.00;99.90
5086;DHT22;4715;51.660;7.082;2023-03-31T09:16:12;11.00;99.90
5086;DHT22;4715;51.660;7.082;2023-03-31T09:18:36;11.00;99.90
5086;DHT22;4715;51.660;7.082;2023-03-31T09:21:03;11.00;99.90
5086;DHT22;4715;51.660;7.082;2023-03-31T09:23:30;11.00;99.90
5086;DHT22;4715;51.660;7.082;2023-03-31T09:25:56;11.00;99.90
5086;DHT22;4715;51.660;7.082;2023-03-31T09:28:21;11.00;99.90
5086;DHT22;4715;51.660;7.082;2023-03-31T09:30:43;11.10;99.90
5086;DHT22;4715;51.660;7.082;2023-03-31T09:33:11;11.10;99.90
5086;DHT22;4715;51.660;7.082;2023-03-31T09:35:34;11.10;99.90
5086;DHT22;4715;51.660;7.082;2023-03-31T09:37:56;11.10;99.90
5086;DHT22;4715;51.660;7.082;2023-03-31T09:40:20;11.10;99.90
5086;DHT22;4715;51.660;7.082;2023-03-31T09:42:44;11.10;99.90
5086;DHT22;4715;51.660;7.082;2023-03-31T09:45:13;11.10;99.90
5086;DHT22;4715;51.660;7.082;2023-03-31T09:47:40;11.20;99.90
5086;DHT22;4715;51.660;7.082;2023-03-31T09:50:03;11.20;99.90
5086;DHT22;4715;51.660;7.082;2023-03-31T09:52:28;11.20;99.90
5086;DHT22;4715;51.660;7.082;2023-03-31T09:54:52;11.30;99.90
5086;DHT22;4715;51.660;7.082;2023-03-31T09:57:22;11.30;99.90
5086;DHT22;4715;51.660;7.082;2023-03-31T09:59:49;11.30;99.90
5086;DHT22;4715;51.660;7.082;2023-03-31T10:02:32;11.40;99.90
5086;DHT22;4715;51.660;7.082;2023-03-31T10:04:54;11.50;99.90
5086;DHT22;4715;51.660;7.082;2023-03-31T10:07:20;11.50;99.90
5086;DHT22;4715;51.660;7.082;2023-03-31T10:09:43;11.60;99.90
5086;DHT22;4715;51.660;7.082;2023-03-31T10:12:07;11.70;99.90
5086;DHT22;4715;51.660;7.082;2023-03-31T10:14:39;11.80;99.90
5086;DHT22;4715;51.660;7.082;2023-03-31T10:17:04;11.90;99.90
5086;DHT22;4715;51.660;7.082;2023-03-31T10:19:29;11.90;99.90
5086;DHT22;4715;51.660;7.082;2023-03-31T10:21:56;12.00;99.90
5086;DHT22;4715;51.660;7.082;2023-03-31T10:24:19;12.10;99.90
5086;DHT22;4715;51.660;7.082;2023-03-31T10:26:49;12.10;99.90
5086;DHT22;4715;51.660;7.082;2023-03-31T10:29:17;12.20;99.90
5086;DHT22;4715;51.660;7.082;2023-03-31T10:31:41;12.20;99.90
5086;DHT22;4715;51.660;7.082;2023-03-31T10:34:11;12.20;99.90
5086;DHT22;4715;51.660;7.082;2023-03-31T10:36:36;12.20;99.90
5086;DHT22;4715;51.660;7.082;2023-03-31T10:39:03;12.10;99.90
5086;DHT22;4715;51.660;7.082;2023-03-31T10:41:28;12.10;99.90
5086;DHT22;4715;51.660;7.082;2023-03-31T10:43:52;12.10;99.90
5086;DHT22;4715;51.660;7.082;2023-03-31T10:46:14;12.00;99.90
5086;DHT22;4715;51.660;7.082;2023-03-31T10:48:38;12.00;99.90
5086;DHT22;4715;51.660;7.082;2023-03-31T10:51:16;12.00;99.90
5086;DHT22;4715;51.660;7.082;2023-03-31T10:53:39;12.10;99.90
5086;DHT22;4715;51.660;7.082;2023-03-31T10:56:13;12.10;99.90
5086;DHT22;4715;51.660;7.082;2023-03-31T10:58:45;12.30;99.90
5086;DHT22;4715;51.660;7.082;2023-03-31T11:01:21;12.40;99.90
5086;DHT22;4715;51.660;7.082;2023-03-31T11:03:59;12.50;99.90
5086;DHT22;4715;51.660;7.082;2023-03-31T11:06:26;12.70;99.90
5086;DHT22;4715;51.660;7.082;2023-03-31T11:09:02;12.80;99.90
5086;DHT22;4715;51.660;7.082;2023-03-31T11:11:46;12.90;99.90
5086;DHT22;4715;51.660;7.082;2023-03-31T11:14:17;13.00;99.90
5086;DHT22;4715;51.660;7.082;2023-03-31T11:16:47;13.10;99.90
5086;DHT22;4715;51.660;7.082;2023-03-31T11:19:25;13.10;99.90
5086;DHT22;4715;51.660;7.082;2023-03-31T11:21:56;13.10;99.90
5086;DHT22;4715;51.660;7.082;2023-03-31T11:24:29;13.00;99.90
5086;DHT22;4715;51.660;7.082;2023-03-31T11:27:03;12.90;99.90
5086;DHT22;4715;51.660;7.082;2023-03-31T11:29:33;12.80;99.90
5086;DHT22;4715;51.660;7.082;2023-03-31T11:32:09;12.60;99.90
5086;DHT22;4715;51.660;7.082;2023-03-31T11:34:56;12.30;99.90
5086;DHT22;4715;51.660;7.082;2023-03-31T11:37:41;11.80;99.90
5086;DHT22;4715;51.660;7.082;2023-03-31T11:40:17;11.60;99.90
5086;DHT22;4715;51.660;7.082;2023-03-31T11:42:46;11.50;99.90
5086;DHT22;4715;51.660;7.082;2023-03-31T11:45:15;11.60;99.90
5086;DHT22;4715;51.660;7.082;2023-03-31T11:47:39;11.70;99.90
5086;DHT22;4715;51.660;7.082;2023-03-31T11:50:09;11.80;99.90
5086;DHT22;4715;51.660;7.082;2023-03-31T11:52:34;12.00;99.90
5086;DHT22;4715;51.660;7.082;2023-03-31T11:55:02;12.10;99.90
5086;DHT22;4715;51.660;7.082;2023-03-31T11:57:29;12.30;99.90
5086;DHT22;4715;51.660;7.082;2023-03-31T11:59:55;12.40;99.90
5086;DHT22;4715;51.660;7.082;2023-03-31T12:02:20;12.50;99.90
5086;DHT22;4715;51.660;7.082;2023-03-31T12:04:47;12.60;99.90
5086;DHT22;4715;51.660;7.082;2023-03-31T12:07:20;12.70;99.90
5086;DHT22;4715;51.660;7.082;2023-03-31T12:09:51;12.80;99.90
5086;DHT22;4715;51.660;7.082;2023-03-31T12:12:17;12.90;99.90
5086;DHT22;4715;51.660;7.082;2023-03-31T12:14:44;13.00;99.90
5086;DHT22;4715;51.660;7.082;2023-03-31T12:17:10;13.00;99.90
5086;DHT22;4715;51.660;7.082;2023-03-31T12:19:39;13.00;99.90
5086;DHT22;4715;51.660;7.082;2023-03-31T12:22:09;13.00;99.90
5086;DHT22;4715;51.660;7.082;2023-03-31T12:24:33;13.00;99.90
5086;DHT22;4715;51.660;7.082;2023-03-31T12:27:09;13.00;99.90
5086;DHT22;4715;51.660;7.082;2023-03-31T12:29:35;13.10;99.90
5086;DHT22;4715;51.660;7.082;2023-03-31T12:32:04;13.20;99.90
5086;DHT22;4715;51.660;7.082;2023-03-31T12:34:29;13.20;99.90
5086;DHT22;4715;51.660;7.082;2023-03-31T12:37:19;13.20;99.90
5086;DHT22;4715;51.660;7.082;2023-03-31T12:39:52;13.30;99.90
5086;DHT22;4715;51.660;7.082;2023-03-31T12:42:45;13.30;99.90
5086;DHT22;4715;51.660;7.082;2023-03-31T12:45:17;13.30;99.90
5086;DHT22;4715;51.660;7.082;2023-03-31T12:47:58;13.30;99.90
5086;DHT22;4715;51.660;7.082;2023-03-31T12:50:38;13.20;99.90
5086;DHT22;4715;51.660;7.082;2023-03-31T12:53:12;13.20;99.90
5086;DHT22;4715;51.660;7.082;2023-03-31T12:55:39;13.20;99.90
5086;DHT22;4715;51.660;7.082;2023-03-31T12:58:42;13.20;99.90
5086;DHT22;4715;51.660;7.082;2023-03-31T13:01:06;13.30;99.90
5086;DHT22;4715;51.660;7.082;2023-03-31T13:03:43;13.30;99.90
5086;DHT22;4715;51.660;7.082;2023-03-31T13:06:09;13.30;99.90
5086;DHT22;4715;51.660;7.082;2023-03-31T13:08:53;13.40;99.90
5086;DHT22;4715;51.660;7.082;2023-03-31T13:11:17;13.50;99.90
5086;DHT22;4715;51.660;7.082;2023-03-31T13:13:51;13.50;99.90
5086;DHT22;4715;51.660;7.082;2023-03-31T13:16:18;13.60;99.90
5086;DHT22;4715;51.660;7.082;2023-03-31T13:18:49;13.60;99.90
5086;DHT22;4715;51.660;7.082;2023-03-31T13:21:13;13.60;99.90
5086;DHT22;4715;51.660;7.082;2023-03-31T13:23:36;13.60;99.90
5086;DHT22;4715;51.660;7.082;2023-03-31T13:26:37;13.60;99.90
5086;DHT22;4715;51.660;7.082;2023-03-31T13:29:21;13.70;99.90
5086;DHT22;4715;51.660;7.082;2023-03-31T13:32:05;13.70;99.90
5086;DHT22;4715;51.660;7.082;2023-03-31T13:34:32;13.70;99.90
5086;DHT22;4715;51.660;7.082;2023-03-31T13:37:07;13.70;99.90
5086;DHT22;4715;51.660;7.082;2023-03-31T13:40:12;13.70;99.90
5086;DHT22;4715;51.660;7.082;2023-03-31T13:43:11;13.70;99.90
5086;DHT22;4715;51.660;7.082;2023-03-31T13:45:57;13.70;99.90
5086;DHT22;4715;51.660;7.082;2023-03-31T13:48:38;13.70;99.90
5086;DHT22;4715;51.660;7.082;2023-03-31T13:51:25;13.70;99.90
5086;DHT22;4715;51.660;7.082;2023-03-31T13:57:07;13.70;99.90
5086;DHT22;4715;51.660;7.082;2023-03-31T14:02:47;13.70;99.90
5086;DHT22;4715;51.660;7.082;2023-03-31T14:05:30;13.80;99.90
5086;DHT22;4715;51.660;7.082;2023-03-31T14:07:58;14.00;99.90
5086;DHT22;4715;51.660;7.082;2023-03-31T14:10:25;14.10;99.90
5086;DHT22;4715;51.660;7.082;2023-03-31T14:12:50;14.20;99.90
5086;DHT22;4715;51.660;7.082;2023-03-31T14:15:18;14.20;99.90
5086;DHT22;4715;51.660;7.082;2023-03-31T14:17:42;14.30;99.90
5086;DHT22;4715;51.660;7.082;2023-03-31T14:20:27;14.20;99.90
5086;DHT22;4715;51.660;7.082;2023-03-31T14:23:03;14.30;99.90
5086;DHT22;4715;51.660;7.082;2023-03-31T14:25:39;14.30;99.90
5086;DHT22;4715;51.660;7.082;2023-03-31T14:28:13;14.30;99.90
5086;DHT22;4715;51.660;7.082;2023-03-31T14:30:46;14.40;99.90
5086;DHT22;4715;51.660;7.082;2023-03-31T14:33:29;14.40;99.90
5086;DHT22;4715;51.660;7.082;2023-03-31T14:35:58;14.40;99.90
5086;DHT22;4715;51.660;7.082;2023-03-31T14:38:22;14.40;99.90
5086;DHT22;4715;51.660;7.082;2023-03-31T14:40:47;14.40;99.90
5086;DHT22;4715;51.660;7.082;2023-03-31T14:43:17;14.40;99.90
5086;DHT22;4715;51.660;7.082;2023-03-31T14:45:42;14.30;99.90
5086;DHT22;4715;51.660;7.082;2023-03-31T14:48:10;14.20;99.90
5086;DHT22;4715;51.660;7.082;2023-03-31T14:50:35;14.20;99.90
5086;DHT22;4715;51.660;7.082;2023-03-31T14:52:57;14.10;99.90
5086;DHT22;4715;51.660;7.082;2023-03-31T14:55:23;14.10;99.90
5086;DHT22;4715;51.660;7.082;2023-03-31T14:57:46;13.90;99.90
5086;DHT22;4715;51.660;7.082;2023-03-31T15:00:13;13.70;99.90
5086;DHT22;4715;51.660;7.082;2023-03-31T15:02:39;13.50;99.90
5086;DHT22;4715;51.660;7.082;2023-03-31T15:05:03;13.20;99.90
5086;DHT22;4715;51.660;7.082;2023-03-31T15:07:28;12.90;99.90
5086;DHT22;4715;51.660;7.082;2023-03-31T15:09:52;12.70;99.90
5086;DHT22;4715;51.660;7.082;2023-03-31T15:12:16;12.60;99.90
5086;DHT22;4715;51.660;7.082;2023-03-31T15:14:43;12.50;99.90
5086;DHT22;4715;51.660;7.082;2023-03-31T15:17:05;12.50;99.90
5086;DHT22;4715;51.660;7.082;2023-03-31T15:19:29;12.60;99.90
5086;DHT22;4715;51.660;7.082;2023-03-31T15:21:55;12.60;99.90
5086;DHT22;4715;51.660;7.082;2023-03-31T15:24:22;12.70;99.90
5086;DHT22;4715;51.660;7.082;2023-03-31T15:26:49;12.70;99.90
5086;DHT22;4715;51.660;7.082;2023-03-31T15:29:16;12.70;99.90
5086;DHT22;4715;51.660;7.082;2023-03-31T15:31:38;12.70;99.90
5086;DHT22;4715;51.660;7.082;2023-03-31T15:34:13;12.70;99.90
5086;DHT22;4715;51.660;7.082;2023-03-31T15:36:37;12.70;99.90
5086;DHT22;4715;51.660;7.082;2023-03-31T15:39:02;12.70;99.90
5086;DHT22;4715;51.660;7.082;2023-03-31T15:41:30;12.80;99.90
5086;DHT22;4715;51.660;7.082;2023-03-31T15:44:04;13.00;99.90
5086;DHT22;4715;51.660;7.082;2023-03-31T15:46:48;13.10;99.90
5086;DHT22;4715;51.660;7.082;2023-03-31T15:49:19;13.10;99.90
5086;DHT22;4715;51.660;7.082;2023-03-31T15:51:46;13.10;99.90
5086;DHT22;4715;51.660;7.082;2023-03-31T15:54:29;13.00;99.90
5086;DHT22;4715;51.660;7.082;2023-03-31T15:56:56;13.00;99.90
5086;DHT22;4715;51.660;7.082;2023-03-31T15:59:22;12.90;99.90
5086;DHT22;4715;51.660;7.082;2023-03-31T16:01:45;12.80;99.90
5086;DHT22;4715;51.660;7.082;2023-03-31T16:04:13;12.80;99.90
5086;DHT22;4715;51.660;7.082;2023-03-31T16:06:45;12.80;99.90
5086;DHT22;4715;51.660;7.082;2023-03-31T16:09:12;12.80;99.90
5086;DHT22;4715;51.660;7.082;2023-03-31T16:11:40;12.80;99.90